Time;durP1;ratioP1;P1;durP2;ratioP2;P2;SDS_P1;SDS_P2;PMS_P1;PMS_P2;Temp;Humidity;BMP_temperature;BMP_pressure;BME280_temperature;BME280_humidity;BME280_pressure;Samples;Min_cycle;Max_cycle;Signal;HPM_P1;HPM_P2
2021/01/21 00:02:15;;;;;;;3.47;1.40;;;;;;;;;;5093537;28;20050;-75
2021/01/21 00:04:40;;;;;;;4.55;1.90;;;;;;;;;;5093780;28;20121;-75
2021/01/21 00:07:06;;;;;;;7.30;2.20;;;;;;;;;;5093025;28;20055;-75
2021/01/21 00:09:31;;;;;;;7.00;1.80;;;;;;;;;;5093435;28;20123;-75
2021/01/21 00:11:58;;;;;;;4.05;1.48;;;;;;;;;;5093513;28;20063;-75
2021/01/21 00:14:23;;;;;;;8.60;2.17;;;;;;;;;;5093596;28;20035;-75
2021/01/21 00:16:48;;;;;;;4.75;2.17;;;;;;;;;;5093056;28;20122;-75
2021/01/21 00:19:13;;;;;;;8.60;2.20;;;;;;;;;;5093084;28;20124;-75
2021/01/21 00:21:39;;;;;;;4.28;1.92;;;;;;;;;;5092770;28;20038;-75
2021/01/21 00:24:05;;;;;;;3.13;1.90;;;;;;;;;;5093359;28;20039;-75
2021/01/21 00:26:30;;;;;;;5.18;1.80;;;;;;;;;;5092103;28;20446;-75
2021/01/21 00:28:55;;;;;;;4.45;2.00;;;;;;;;;;5092075;28;20093;-75
2021/01/21 00:31:21;;;;;;;4.75;1.88;;;;;;;;;;5093059;28;20028;-75
2021/01/21 00:33:46;;;;;;;10.02;2.63;;;;;;;;;;5093458;28;20058;-75
2021/01/21 00:36:13;;;;;;;6.15;2.08;;;;;;;;;;5091618;28;20417;-75
2021/01/21 00:38:40;;;;;;;6.43;2.03;;;;;;;;;;5093275;28;20470;-75
2021/01/21 00:41:05;;;;;;;4.28;1.60;;;;;;;;;;5093328;28;20064;-75
2021/01/21 00:43:30;;;;;;;4.10;1.83;;;;;;;;;;5093013;28;20078;-75
2021/01/21 00:45:56;;;;;;;5.55;1.60;;;;;;;;;;5092784;28;20059;-75
2021/01/21 00:48:22;;;;;;;3.40;1.52;;;;;;;;;;5092991;28;20497;-75
2021/01/21 00:50:48;;;;;;;4.22;1.85;;;;;;;;;;5092800;28;20032;-74
2021/01/21 00:53:14;;;;;;;4.38;1.67;;;;;;;;;;5091645;28;20381;-75
2021/01/21 00:55:39;;;;;;;6.18;1.73;;;;;;;;;;5092954;28;20034;-75
2021/01/21 00:58:05;;;;;;;9.15;1.85;;;;;;;;;;5091707;28;20028;-75
2021/01/21 01:00:31;;;;;;;7.57;1.40;;;;;;;;;;5092907;28;20067;-75
2021/01/21 01:02:56;;;;;;;4.05;2.00;;;;;;;;;;5091354;28;20035;-75
2021/01/21 01:05:22;;;;;;;4.80;1.67;;;;;;;;;;5093341;28;20124;-75
2021/01/21 01:07:48;;;;;;;5.53;1.70;;;;;;;;;;5095330;28;20142;-75
2021/01/21 01:10:16;;;;;;;5.32;1.92;;;;;;;;;;5096551;28;20067;-75
2021/01/21 01:12:42;;;;;;;4.63;2.00;;;;;;;;;;5096483;28;20089;-75
2021/01/21 01:15:09;;;;;;;3.05;1.63;;;;;;;;;;5096606;28;20031;-75
2021/01/21 01:17:36;;;;;;;5.97;2.00;;;;;;;;;;5095029;28;20036;-75
2021/01/21 01:20:02;;;;;;;5.75;2.00;;;;;;;;;;5096341;28;20047;-75
2021/01/21 01:22:30;;;;;;;3.08;1.50;;;;;;;;;;5094881;28;20123;-75
2021/01/21 01:24:55;;;;;;;5.38;1.70;;;;;;;;;;5096451;28;20433;-75
2021/01/21 01:27:21;;;;;;;7.60;2.00;;;;;;;;;;5095152;28;20122;-75
2021/01/21 01:29:47;;;;;;;4.03;1.75;;;;;;;;;;5095093;28;20035;-75
2021/01/21 01:32:15;;;;;;;4.72;1.90;;;;;;;;;;5094771;28;20031;-75
2021/01/21 01:34:45;;;;;;;2.78;1.40;;;;;;;;;;5095981;28;20481;-75
2021/01/21 01:37:15;;;;;;;3.45;1.55;;;;;;;;;;5094367;28;20039;-75
2021/01/21 01:39:57;;;;;;;4.28;1.45;;;;;;;;;;5096075;28;20514;-75
2021/01/21 01:42:36;;;;;;;3.30;1.35;;;;;;;;;;5094351;28;20031;-75
2021/01/21 01:45:08;;;;;;;2.75;1.40;;;;;;;;;;5094397;28;20036;-75
2021/01/21 01:47:39;;;;;;;5.65;1.90;;;;;;;;;;5077766;28;20028;-75
2021/01/21 01:50:05;;;;;;;3.03;1.27;;;;;;;;;;5095884;28;20036;-75
2021/01/21 01:52:42;;;;;;;5.40;1.75;;;;;;;;;;5094146;28;20039;-75
2021/01/21 01:55:16;;;;;;;4.43;1.70;;;;;;;;;;5094230;28;20043;-75
2021/01/21 01:57:54;;;;;;;5.38;2.03;;;;;;;;;;5093928;28;20058;-75
2021/01/21 02:00:23;;;;;;;5.55;1.45;;;;;;;;;;5094335;28;20031;-75
2021/01/21 02:02:58;;;;;;;3.75;1.77;;;;;;;;;;5094450;28;20035;-75
2021/01/21 02:05:24;;;;;;;5.75;1.92;;;;;;;;;;5095053;28;20043;-75
2021/01/21 02:07:50;;;;;;;3.88;1.70;;;;;;;;;;5094222;28;20042;-75
2021/01/21 02:10:18;;;;;;;5.97;1.52;;;;;;;;;;5094131;28;20032;-75
2021/01/21 02:13:22;;;;;;;9.38;2.05;;;;;;;;;;5095625;28;20151;-75
2021/01/21 02:15:56;;;;;;;3.13;1.45;;;;;;;;;;5093530;28;20024;-75
2021/01/21 02:18:39;;;;;;;4.18;1.73;;;;;;;;;;5093783;28;20040;-75
2021/01/21 02:21:29;;;;;;;6.78;1.70;;;;;;;;;;5093779;28;20087;-75
2021/01/21 02:24:14;;;;;;;4.05;1.60;;;;;;;;;;5093932;28;20024;-75
2021/01/21 02:26:56;;;;;;;3.08;1.67;;;;;;;;;;5093627;28;20039;-76
2021/01/21 02:29:35;;;;;;;4.50;1.23;;;;;;;;;;5076883;28;20350;-75
2021/01/21 02:32:08;;;;;;;9.48;1.77;;;;;;;;;;5093345;28;20024;-75
2021/01/21 02:34:44;;;;;;;3.40;1.60;;;;;;;;;;5093398;28;20481;-75
2021/01/21 02:37:34;;;;;;;5.22;1.80;;;;;;;;;;5093048;28;20064;-75
2021/01/21 02:40:05;;;;;;;4.95;1.67;;;;;;;;;;5093365;28;20065;-75
2021/01/21 02:42:46;;;;;;;6.82;1.65;;;;;;;;;;5093432;28;20024;-75
2021/01/21 02:45:17;;;;;;;2.88;2.10;;;;;;;;;;5093228;28;20047;-75
2021/01/21 02:47:46;;;;;;;7.38;1.65;;;;;;;;;;5093215;28;20052;-75
2021/01/21 02:50:12;;;;;;;2.90;1.10;;;;;;;;;;5093658;28;20061;-75
2021/01/21 02:52:56;;;;;;;5.35;1.80;;;;;;;;;;5093102;28;20081;-75
2021/01/21 02:55:41;;;;;;;5.85;1.70;;;;;;;;;;5092892;28;20032;-74
2021/01/21 02:58:19;;;;;;;3.90;1.60;;;;;;;;;;5093070;28;20043;-75
2021/01/21 03:00:46;;;;;;;4.60;1.48;;;;;;;;;;5094281;28;20043;-75
2021/01/21 03:03:16;;;;;;;4.70;1.65;;;;;;;;;;5093103;28;20116;-75
2021/01/21 03:05:44;;;;;;;3.15;1.52;;;;;;;;;;5076077;28;20032;-75
2021/01/21 03:08:09;;;;;;;6.05;1.92;;;;;;;;;;5094308;28;20046;-75
2021/01/21 03:10:35;;;;;;;4.72;1.65;;;;;;;;;;5093060;28;20032;-75
2021/01/21 03:13:00;;;;;;;2.90;1.50;;;;;;;;;;5093687;28;20031;-75
2021/01/21 03:15:36;;;;;;;4.78;1.30;;;;;;;;;;5093333;28;20077;-75
2021/01/21 03:18:08;;;;;;;3.67;1.38;;;;;;;;;;5091629;28;20130;-75
2021/01/21 03:20:35;;;;;;;3.53;1.30;;;;;;;;;;5091614;28;20036;-74
2021/01/21 03:23:01;;;;;;;2.88;1.35;;;;;;;;;;5094426;28;20040;-75
2021/01/21 03:25:27;;;;;;;2.75;1.58;;;;;;;;;;5091285;28;20203;-76
2021/01/21 03:28:02;;;;;;;5.05;1.50;;;;;;;;;;5091418;28;20086;-75
2021/01/21 03:30:31;;;;;;;3.88;1.60;;;;;;;;;;5076027;28;20032;-75
2021/01/21 03:32:59;;;;;;;3.40;1.42;;;;;;;;;;5092765;28;20450;-75
2021/01/21 03:35:25;;;;;;;2.83;1.40;;;;;;;;;;5092260;28;20067;-75
2021/01/21 03:37:51;;;;;;;4.05;1.58;;;;;;;;;;5092312;28;20465;-75
2021/01/21 03:40:19;;;;;;;3.35;1.67;;;;;;;;;;5092599;28;20028;-75
2021/01/21 03:42:55;;;;;;;2.80;1.80;;;;;;;;;;5092545;28;20035;-75
2021/01/21 03:45:34;;;;;;;6.63;1.40;;;;;;;;;;5093323;28;20043;-76
2021/01/21 03:48:05;;;;;;;3.05;1.35;;;;;;;;;;5092685;28;20032;-75
2021/01/21 03:50:35;;;;;;;3.78;1.40;;;;;;;;;;5092276;28;20457;-75
2021/01/21 03:53:01;;;;;;;2.45;1.20;;;;;;;;;;5092411;28;20067;-75
2021/01/21 03:55:36;;;;;;;7.03;1.50;;;;;;;;;;5092024;28;20425;-74
2021/01/21 03:58:11;;;;;;;6.22;1.40;;;;;;;;;;5092121;28;20192;-74
2021/01/21 04:00:45;;;;;;;3.08;1.23;;;;;;;;;;5092387;28;20036;-75
2021/01/21 04:03:10;;;;;;;5.47;1.45;;;;;;;;;;5092570;28;20047;-75
2021/01/21 04:05:47;;;;;;;;;;;;;;;;;;5092003;28;20043;-74
2021/01/21 04:08:16;;;;;;;2.90;1.23;;;;;;;;;;5075836;28;19919;-73
2021/01/21 04:10:49;;;;;;;4.40;1.20;;;;;;;;;;5092009;28;20028;-74
2021/01/21 04:13:25;;;;;;;;;;;;;;;;;;5092581;28;20039;-74
2021/01/21 04:15:53;;;;;;;3.88;1.50;;;;;;;;;;5075481;28;19923;-74
2021/01/21 04:18:20;;;;;;;5.70;1.70;;;;;;;;;;5075448;28;20028;-74
2021/01/21 04:21:00;;;;;;;3.85;1.40;;;;;;;;;;5091483;28;20733;-74
2021/01/21 04:23:26;;;;;;;2.90;1.52;;;;;;;;;;5091950;28;20028;-74
2021/01/21 04:25:52;;;;;;;4.10;1.30;;;;;;;;;;5091864;28;20024;-74
2021/01/21 04:28:21;;;;;;;2.50;1.42;;;;;;;;;;5092152;28;20386;-74
2021/01/21 04:30:47;;;;;;;5.18;1.58;;;;;;;;;;5075125;28;20032;-74
2021/01/21 04:33:13;;;;;;;5.00;1.60;;;;;;;;;;5092161;28;20112;-74
2021/01/21 04:35:38;;;;;;;6.43;1.58;;;;;;;;;;5075091;28;20039;-74
2021/01/21 04:38:04;;;;;;;1.95;0.98;;;;;;;;;;5091334;28;20032;-74
2021/01/21 04:40:40;;;;;;;4.10;1.50;;;;;;;;;;5094136;28;20123;-74
2021/01/21 04:43:40;;;;;;;2.83;1.30;;;;;;;;;;5087255;28;20036;-74
2021/01/21 04:46:16;;;;;;;4.13;1.42;;;;;;;;;;5095527;28;20085;-74
2021/01/21 04:48:50;;;;;;;3.92;1.35;;;;;;;;;;5095657;28;20036;-74
2021/01/21 04:51:16;;;;;;;3.47;1.52;;;;;;;;;;5095523;28;20543;-74
2021/01/21 04:53:53;;;;;;;3.10;1.42;;;;;;;;;;5095883;28;20049;-74
2021/01/21 04:56:38;;;;;;;3.20;1.00;;;;;;;;;;5095276;28;20043;-74
2021/01/21 04:59:26;;;;;;;4.10;1.55;;;;;;;;;;5081451;28;20036;-74
2021/01/21 05:01:52;;;;;;;2.65;1.33;;;;;;;;;;5095439;28;20131;-74
2021/01/21 05:04:19;;;;;;;3.22;1.42;;;;;;;;;;5095529;28;20032;-74
2021/01/21 05:06:53;;;;;;;2.97;1.20;;;;;;;;;;5094622;28;20080;-74
2021/01/21 05:09:22;;;;;;;5.65;1.50;;;;;;;;;;5095257;28;20028;-74
2021/01/21 05:11:49;;;;;;;2.78;1.42;;;;;;;;;;5095454;28;20024;-74
2021/01/21 05:14:35;;;;;;;3.73;1.33;;;;;;;;;;5096155;28;20068;-74
2021/01/21 05:17:36;;;;;;;2.50;1.17;;;;;;;;;;5085779;28;20044;-74
2021/01/21 05:20:23;;;;;;;3.28;1.20;;;;;;;;;;5096449;28;20122;-74
2021/01/21 05:23:09;;;;;;;2.65;1.92;;;;;;;;;;5095943;28;20516;-74
2021/01/21 05:26:01;;;;;;;3.25;1.60;;;;;;;;;;5095134;28;20355;-74
2021/01/21 05:28:41;;;;;;;3.70;1.23;;;;;;;;;;5095015;28;20131;-74
2021/01/21 05:31:15;;;;;;;5.18;1.38;;;;;;;;;;5094762;28;20081;-74
2021/01/21 05:33:45;;;;;;;3.90;1.48;;;;;;;;;;5094622;28;20375;-74
2021/01/21 05:36:17;;;;;;;3.92;1.40;;;;;;;;;;5095821;28;20032;-74
2021/01/21 05:39:06;;;;;;;3.53;1.35;;;;;;;;;;5094960;28;20032;-74
2021/01/21 05:41:51;;;;;;;3.28;1.30;;;;;;;;;;5095998;28;20052;-74
2021/01/21 05:44:27;;;;;;;3.10;1.30;;;;;;;;;;5094765;28;20473;-74
2021/01/21 05:47:05;;;;;;;2.63;1.40;;;;;;;;;;5094199;28;20036;-74
2021/01/21 05:49:30;;;;;;;2.92;1.25;;;;;;;;;;5094508;28;20028;-74
2021/01/21 05:52:03;;;;;;;4.28;1.63;;;;;;;;;;5093344;28;20553;-74
2021/01/21 05:54:29;;;;;;;2.85;1.50;;;;;;;;;;5094454;28;20081;-74
2021/01/21 05:57:05;;;;;;;3.92;1.40;;;;;;;;;;5094305;28;20044;-73
2021/01/21 05:59:32;;;;;;;3.72;1.17;;;;;;;;;;5095300;28;20072;-74
2021/01/21 06:02:08;;;;;;;2.20;1.33;;;;;;;;;;5094623;28;20024;-74
2021/01/21 06:04:40;;;;;;;3.72;1.50;;;;;;;;;;5094254;28;20028;-74
2021/01/21 06:07:06;;;;;;;4.38;1.65;;;;;;;;;;5095329;28;20081;-74
2021/01/21 06:09:31;;;;;;;4.00;1.00;;;;;;;;;;5095509;28;20485;-74
2021/01/21 06:12:05;;;;;;;3.22;1.30;;;;;;;;;;5095347;28;20459;-74
2021/01/21 06:14:30;;;;;;;2.33;1.30;;;;;;;;;;5095461;28;20035;-74
2021/01/21 06:16:56;;;;;;;2.20;1.08;;;;;;;;;;5095193;28;20062;-74
2021/01/21 06:19:22;;;;;;;5.78;1.08;;;;;;;;;;5094017;28;20036;-74
2021/01/21 06:21:56;;;;;;;2.47;0.90;;;;;;;;;;5093533;28;20086;-74
2021/01/21 06:24:46;;;;;;;3.30;1.50;;;;;;;;;;5094803;28;20044;-74
2021/01/21 06:27:14;;;;;;;2.53;1.38;;;;;;;;;;5093681;28;20024;-74
2021/01/21 06:29:44;;;;;;;4.15;1.50;;;;;;;;;;5094774;28;20032;-74
2021/01/21 06:32:12;;;;;;;3.63;1.00;;;;;;;;;;5094995;28;20115;-74
2021/01/21 06:34:39;;;;;;;3.05;1.35;;;;;;;;;;5095057;28;20032;-74
2021/01/21 06:37:13;;;;;;;2.88;1.50;;;;;;;;;;5094313;28;20067;-74
2021/01/21 06:39:53;;;;;;;2.63;1.10;;;;;;;;;;5094797;28;20028;-74
2021/01/21 06:42:27;;;;;;;4.38;1.00;;;;;;;;;;5094765;28;20093;-75
2021/01/21 06:44:53;;;;;;;2.88;1.70;;;;;;;;;;5094718;28;20039;-74
2021/01/21 06:47:19;;;;;;;2.13;1.13;;;;;;;;;;5092924;28;20479;-75
2021/01/21 06:49:45;;;;;;;1.63;1.13;;;;;;;;;;5093091;28;20485;-74
2021/01/21 06:52:11;;;;;;;1.80;1.30;;;;;;;;;;5094568;28;20043;-74
2021/01/21 06:54:37;;;;;;;2.22;1.10;;;;;;;;;;5094845;28;20469;-74
2021/01/21 06:57:34;;;;;;;3.10;1.02;;;;;;;;;;5094219;28;20174;-74
2021/01/21 07:00:07;;;;;;;;;;;;;;;;;;5094667;28;20043;-74
2021/01/21 07:02:51;;;;;;;4.40;1.30;;;;;;;;;;5094100;28;19912;-74
2021/01/21 07:05:20;;;;;;;6.10;1.40;;;;;;;;;;5094296;28;20460;-74
2021/01/21 07:08:00;;;;;;;2.75;1.40;;;;;;;;;;5093921;28;20114;-74
2021/01/21 07:10:46;;;;;;;4.68;2.17;;;;;;;;;;5094299;28;20057;-75
2021/01/21 07:13:14;;;;;;;2.35;1.20;;;;;;;;;;5093722;28;20062;-74
2021/01/21 07:15:45;;;;;;;3.00;1.52;;;;;;;;;;5091729;28;20039;-74
2021/01/21 07:18:19;;;;;;;6.15;1.60;;;;;;;;;;5092043;28;20040;-74
2021/01/21 07:21:00;;;;;;;5.88;1.40;;;;;;;;;;5091902;28;20389;-74
2021/01/21 07:23:45;;;;;;;2.60;1.42;;;;;;;;;;5093550;28;20028;-74
2021/01/21 07:26:20;;;;;;;3.40;1.20;;;;;;;;;;5094140;28;20434;-75
2021/01/21 07:29:06;;;;;;;4.27;1.20;;;;;;;;;;5092817;28;20079;-74
2021/01/21 07:31:56;;;;;;;7.07;1.63;;;;;;;;;;5093833;28;20056;-74
2021/01/21 07:34:40;;;;;;;3.40;1.20;;;;;;;;;;5093996;28;20092;-75
2021/01/21 07:37:22;;;;;;;3.30;2.40;;;;;;;;;;5093644;28;20466;-74
2021/01/21 07:40:06;;;;;;;3.03;1.33;;;;;;;;;;5092533;28;20032;-74
2021/01/21 07:42:37;;;;;;;3.20;1.20;;;;;;;;;;5093559;28;20128;-76
2021/01/21 07:45:07;;;;;;;3.25;1.30;;;;;;;;;;5091885;28;20485;-72
2021/01/21 07:47:35;;;;;;;3.10;1.50;;;;;;;;;;5093672;28;20034;-75
2021/01/21 07:50:19;;;;;;;2.08;1.10;;;;;;;;;;5093717;28;20040;-75
2021/01/21 07:52:54;;;;;;;3.50;1.20;;;;;;;;;;5093518;28;20077;-74
2021/01/21 07:55:37;;;;;;;2.10;1.15;;;;;;;;;;5093803;28;20146;-75
2021/01/21 07:58:21;;;;;;;1.92;1.00;;;;;;;;;;5093551;28;20043;-75
2021/01/21 08:00:48;;;;;;;4.68;1.42;;;;;;;;;;5084943;28;20512;-75
2021/01/21 08:03:14;;;;;;;4.78;1.27;;;;;;;;;;5077684;28;20435;-74
2021/01/21 08:05:40;;;;;;;2.90;1.30;;;;;;;;;;5082471;28;20032;-75
2021/01/21 08:08:06;;;;;;;2.47;1.38;;;;;;;;;;5071795;28;20533;-75
2021/01/21 08:10:36;;;;;;;4.60;1.05;;;;;;;;;;5081478;28;20040;-75
2021/01/21 08:13:04;;;;;;;4.22;2.25;;;;;;;;;;5093976;28;20036;-74
2021/01/21 08:15:30;;;;;;;3.08;1.38;;;;;;;;;;5098385;28;20062;-73
2021/01/21 08:17:56;;;;;;;1.02;0.63;;;;;;;;;;5100485;28;20035;-74
2021/01/21 08:20:27;;;;;;;1.52;0.60;;;;;;;;;;5100079;28;20039;-73
2021/01/21 08:22:54;;;;;;;1.90;0.70;;;;;;;;;;5099847;28;20078;-74
2021/01/21 08:25:19;;;;;;;2.85;0.77;;;;;;;;;;5079737;28;20048;-73
2021/01/21 08:27:48;;;;;;;1.75;0.75;;;;;;;;;;5079541;28;20039;-73
2021/01/21 08:30:28;;;;;;;1.10;0.52;;;;;;;;;;5078394;28;20488;-73
2021/01/21 08:32:59;;;;;;;0.80;0.57;;;;;;;;;;5079814;28;20078;-73
2021/01/21 08:35:30;;;;;;;1.33;0.45;;;;;;;;;;5079720;28;20032;-73
2021/01/21 08:37:58;;;;;;;0.63;0.40;;;;;;;;;;5079546;28;20059;-73
2021/01/21 08:40:24;;;;;;;0.40;0.30;;;;;;;;;;5079403;28;20044;-73
2021/01/21 08:42:52;;;;;;;1.23;0.57;;;;;;;;;;5092092;28;20032;-73
2021/01/21 08:45:19;;;;;;;3.20;0.32;;;;;;;;;;5099609;28;20143;-73
2021/01/21 08:47:46;;;;;;;0.50;0.45;;;;;;;;;;5099936;28;20111;-73
2021/01/21 08:50:13;;;;;;;1.17;0.73;;;;;;;;;;5099670;28;20046;-73
2021/01/21 08:52:58;;;;;;;1.08;0.60;;;;;;;;;;5098586;28;20089;-72
2021/01/21 08:55:38;;;;;;;1.30;0.50;;;;;;;;;;5099390;28;20058;-73
2021/01/21 08:58:04;;;;;;;0.98;0.40;;;;;;;;;;5101134;28;20046;-73
2021/01/21 09:00:31;;;;;;;0.50;0.45;;;;;;;;;;5098709;28;20436;-73
2021/01/21 09:02:57;;;;;;;1.58;0.60;;;;;;;;;;5099676;28;20101;-73
2021/01/21 09:05:23;;;;;;;2.40;1.00;;;;;;;;;;5099568;28;20036;-73
2021/01/21 09:08:01;;;;;;;5.50;0.60;;;;;;;;;;5098463;28;20073;-73
2021/01/21 09:10:35;;;;;;;0.45;0.20;;;;;;;;;;5099735;28;20401;-73
2021/01/21 09:13:01;;;;;;;0.30;0.20;;;;;;;;;;5099482;28;20081;-73
2021/01/21 09:15:26;;;;;;;0.30;0.30;;;;;;;;;;5099638;28;20071;-73
2021/01/21 09:18:04;;;;;;;0.50;0.40;;;;;;;;;;5098698;28;20036;-73
2021/01/21 09:20:32;;;;;;;0.55;0.40;;;;;;;;;;5078959;28;20028;-74
2021/01/21 09:23:20;;;;;;;2.75;0.52;;;;;;;;;;5079037;28;20040;-75
2021/01/21 09:25:47;;;;;;;0.43;0.40;;;;;;;;;;5085835;28;20070;-74
2021/01/21 09:28:13;;;;;;;0.90;0.55;;;;;;;;;;5094534;28;20431;-74
2021/01/21 09:30:40;;;;;;;1.17;0.68;;;;;;;;;;5095253;28;20501;-74
2021/01/21 09:33:06;;;;;;;0.82;0.82;;;;;;;;;;5092962;28;20036;-74
2021/01/21 09:35:32;;;;;;;0.32;0.32;;;;;;;;;;5096258;28;20481;-74
2021/01/21 09:37:59;;;;;;;1.83;0.98;;;;;;;;;;5095978;28;20057;-75
2021/01/21 09:40:27;;;;;;;0.45;0.20;;;;;;;;;;5095956;28;20047;-74
2021/01/21 09:42:56;;;;;;;0.77;0.50;;;;;;;;;;5094816;28;20032;-74
2021/01/21 09:45:22;;;;;;;2.28;1.27;;;;;;;;;;5095874;28;20059;-73
2021/01/21 09:47:50;;;;;;;0.47;0.47;;;;;;;;;;5096057;28;20055;-74
2021/01/21 09:50:17;;;;;;;0.70;0.70;;;;;;;;;;5095682;28;20123;-76
2021/01/21 09:52:42;;;;;;;1.00;0.40;;;;;;;;;;5095990;28;20063;-74
2021/01/21 09:55:08;;;;;;;0.63;0.43;;;;;;;;;;5095547;28;20092;-72
2021/01/21 09:57:34;;;;;;;1.85;0.80;;;;;;;;;;5096211;28;20032;-72
2021/01/21 09:59:59;;;;;;;0.50;0.50;;;;;;;;;;5084093;28;20454;-73
2021/01/21 10:02:25;;;;;;;0.75;0.75;;;;;;;;;;5084183;28;20056;-72
2021/01/21 10:04:50;;;;;;;1.17;0.52;;;;;;;;;;5082273;28;20401;-73
2021/01/21 10:07:16;;;;;;;0.82;0.50;;;;;;;;;;5092805;28;20028;-73
2021/01/21 10:09:41;;;;;;;0.45;0.40;;;;;;;;;;5095402;28;20413;-73
2021/01/21 10:12:07;;;;;;;2.28;0.70;;;;;;;;;;5077118;28;20097;-72
2021/01/21 10:14:33;;;;;;;1.05;0.50;;;;;;;;;;5076191;28;20033;-73
2021/01/21 10:16:59;;;;;;;0.95;0.50;;;;;;;;;;5086732;28;20454;-73
2021/01/21 10:19:25;;;;;;;1.48;0.55;;;;;;;;;;5096082;28;20405;-73
2021/01/21 10:21:51;;;;;;;0.50;0.50;;;;;;;;;;5096809;28;20036;-73
2021/01/21 10:24:16;;;;;;;2.20;0.80;;;;;;;;;;5096316;28;20047;-73
2021/01/21 10:26:41;;;;;;;0.63;0.40;;;;;;;;;;5096317;28;20035;-72
2021/01/21 10:29:08;;;;;;;1.58;0.80;;;;;;;;;;5096195;28;20028;-73
2021/01/21 10:31:35;;;;;;;0.65;0.52;;;;;;;;;;5094181;28;20040;-73
2021/01/21 10:34:00;;;;;;;1.02;0.77;;;;;;;;;;5096433;28;20036;-73
2021/01/21 10:36:26;;;;;;;0.85;0.52;;;;;;;;;;5095342;28;20062;-73
2021/01/21 10:38:51;;;;;;;2.25;0.93;;;;;;;;;;5095902;28;20032;-74
2021/01/21 10:41:17;;;;;;;0.85;0.85;;;;;;;;;;5096172;28;20123;-74
2021/01/21 10:43:42;;;;;;;0.73;0.50;;;;;;;;;;5094779;28;20465;-73
2021/01/21 10:46:07;;;;;;;1.15;1.00;;;;;;;;;;5095717;28;20086;-72
2021/01/21 10:48:33;;;;;;;2.67;0.50;;;;;;;;;;5095758;28;20036;-74
2021/01/21 10:50:58;;;;;;;0.43;0.43;;;;;;;;;;5094504;28;20097;-71
2021/01/21 10:53:24;;;;;;;2.10;0.68;;;;;;;;;;5094441;28;20110;-71
2021/01/21 10:55:49;;;;;;;0.60;0.60;;;;;;;;;;5094408;28;20497;-71
2021/01/21 10:58:15;;;;;;;0.30;0.30;;;;;;;;;;5094544;28;20470;-74
2021/01/21 11:00:49;;;;;;;0.75;0.47;;;;;;;;;;5094348;28;20036;-75
2021/01/21 11:03:15;;;;;;;1.52;0.50;;;;;;;;;;5094358;28;20485;-72
2021/01/21 11:05:41;;;;;;;0.88;0.60;;;;;;;;;;5094378;28;20067;-73
2021/01/21 11:08:07;;;;;;;0.30;0.30;;;;;;;;;;5094075;28;20126;-71
2021/01/21 11:10:33;;;;;;;0.95;0.70;;;;;;;;;;5094254;28;20158;-70
2021/01/21 11:12:59;;;;;;;0.73;0.60;;;;;;;;;;5094350;28;20039;-72
2021/01/21 11:15:24;;;;;;;1.10;0.73;;;;;;;;;;5094278;28;20044;-74
2021/01/21 11:17:50;;;;;;;1.38;0.40;;;;;;;;;;5094074;28;20458;-73
2021/01/21 11:20:16;;;;;;;0.98;0.70;;;;;;;;;;5094238;28;20067;-71
2021/01/21 11:22:41;;;;;;;2.13;1.10;;;;;;;;;;5093909;28;20455;-77
2021/01/21 11:25:09;;;;;;;1.98;1.23;;;;;;;;;;5092874;28;20119;-74
2021/01/21 11:27:35;;;;;;;3.28;2.00;;;;;;;;;;5094036;28;20111;-72
2021/01/21 11:30:06;;;;;;;5.63;1.52;;;;;;;;;;5093796;28;20032;-74
2021/01/21 11:32:32;;;;;;;1.58;1.20;;;;;;;;;;5093944;28;20036;-73
2021/01/21 11:34:57;;;;;;;1.65;1.45;;;;;;;;;;5093685;28;20089;-73
2021/01/21 11:37:23;;;;;;;2.55;0.63;;;;;;;;;;5092332;28;20051;-73
2021/01/21 11:39:48;;;;;;;1.05;0.45;;;;;;;;;;5092771;28;20062;-74
2021/01/21 11:42:13;;;;;;;0.50;0.50;;;;;;;;;;5093735;28;20040;-72
2021/01/21 11:44:39;;;;;;;1.55;0.40;;;;;;;;;;5092842;28;20501;-74
2021/01/21 11:47:05;;;;;;;0.43;0.43;;;;;;;;;;5092433;28;20474;-72
2021/01/21 11:49:30;;;;;;;0.70;0.45;;;;;;;;;;5092003;28;20047;-73
2021/01/21 11:51:55;;;;;;;1.17;0.60;;;;;;;;;;5081897;28;20032;-72
2021/01/21 11:54:21;;;;;;;0.55;0.50;;;;;;;;;;5081466;28;20081;-75
2021/01/21 11:56:47;;;;;;;0.95;0.32;;;;;;;;;;5083081;28;20114;-72
2021/01/21 11:59:12;;;;;;;36.15;19.30;;;;;;;;;;5083439;28;20094;-73
2021/01/21 12:01:37;;;;;;;33.67;22.00;;;;;;;;;;5081721;28;20752;-73
2021/01/21 12:04:03;;;;;;;2.88;1.95;;;;;;;;;;5086724;28;20477;-73
2021/01/21 12:06:29;;;;;;;2.47;0.85;;;;;;;;;;5094548;28;20432;-76
2021/01/21 12:08:54;;;;;;;2.47;0.57;;;;;;;;;;5113120;28;20042;-74
2021/01/21 12:11:19;;;;;;;0.90;0.75;;;;;;;;;;5112992;28;20027;-74
2021/01/21 12:13:45;;;;;;;0.68;0.60;;;;;;;;;;5097023;28;20369;-79
2021/01/21 12:16:10;;;;;;;1.55;0.60;;;;;;;;;;5094349;28;20296;-78
2021/01/21 12:18:35;;;;;;;3.65;0.70;;;;;;;;;;5093198;28;20046;-80
2021/01/21 12:21:01;;;;;;;1.85;0.65;;;;;;;;;;5093968;28;20063;-79
2021/01/21 12:23:26;;;;;;;0.63;0.63;;;;;;;;;;5081477;28;20076;-81
2021/01/21 12:25:53;;;;;;;1.85;0.70;;;;;;;;;;5080640;28;20041;-80
2021/01/21 12:28:18;;;;;;;1.48;0.70;;;;;;;;;;5077181;28;20036;-77
2021/01/21 12:30:48;;;;;;;2.40;1.30;;;;;;;;;;5085410;28;20062;-77
2021/01/21 12:33:14;;;;;;;5.43;1.33;;;;;;;;;;5082350;28;20115;-78
2021/01/21 12:35:39;;;;;;;1.10;0.60;;;;;;;;;;5074160;28;20521;-77
2021/01/21 12:38:04;;;;;;;1.95;0.70;;;;;;;;;;5076022;28;20047;-78
2021/01/21 12:40:30;;;;;;;2.78;0.60;;;;;;;;;;5075801;28;20041;-77
2021/01/21 12:42:55;;;;;;;2.85;0.50;;;;;;;;;;5102813;28;20397;-76
2021/01/21 12:45:22;;;;;;;0.70;0.40;;;;;;;;;;5116381;28;20058;-79
2021/01/21 12:47:48;;;;;;;0.47;0.32;;;;;;;;;;5116689;28;20035;-80
2021/01/21 12:50:13;;;;;;;2.08;0.70;;;;;;;;;;5117160;28;20036;-76
2021/01/21 12:52:39;;;;;;;0.60;0.43;;;;;;;;;;5118481;28;20496;-81
2021/01/21 12:55:05;;;;;;;0.77;0.50;;;;;;;;;;5117995;28;20503;-79
2021/01/21 12:57:31;;;;;;;1.23;0.93;;;;;;;;;;5114506;28;20051;-76
2021/01/21 12:59:57;;;;;;;1.13;0.60;;;;;;;;;;5113330;28;20043;-76
2021/01/21 13:02:26;;;;;;;0.93;0.52;;;;;;;;;;5116555;28;20054;-76
2021/01/21 13:04:52;;;;;;;2.33;0.70;;;;;;;;;;5117319;28;20044;-76
2021/01/21 13:07:18;;;;;;;2.00;0.82;;;;;;;;;;5103575;28;20028;-75
2021/01/21 13:09:43;;;;;;;1.75;0.68;;;;;;;;;;5084617;28;20115;-76
2021/01/21 13:12:10;;;;;;;0.65;0.63;;;;;;;;;;5072303;28;20074;-73
2021/01/21 13:14:35;;;;;;;1.85;0.65;;;;;;;;;;5097225;28;20047;-74
2021/01/21 13:17:00;;;;;;;1.15;0.70;;;;;;;;;;5082786;28;20367;-75
2021/01/21 13:19:26;;;;;;;1.83;0.73;;;;;;;;;;5078273;28;20028;-79
2021/01/21 13:21:51;;;;;;;2.65;0.98;;;;;;;;;;5087553;28;20044;-80
2021/01/21 13:24:17;;;;;;;0.85;0.55;;;;;;;;;;5087592;28;20059;-79
2021/01/21 13:26:43;;;;;;;2.20;0.80;;;;;;;;;;5083332;28;20490;-81
2021/01/21 13:29:08;;;;;;;2.30;0.95;;;;;;;;;;5083858;28;20094;-79
2021/01/21 13:31:34;;;;;;;5.47;1.13;;;;;;;;;;5082295;28;20041;-82
2021/01/21 13:33:59;;;;;;;1.92;0.95;;;;;;;;;;5086864;28;20032;-77
2021/01/21 13:36:25;;;;;;;1.10;0.60;;;;;;;;;;5089256;28;20062;-75
2021/01/21 13:38:56;;;;;;;3.03;0.90;;;;;;;;;;5064499;28;20127;-76
2021/01/21 13:41:26;;;;;;;1.10;0.60;;;;;;;;;;5079070;28;20417;-75
2021/01/21 13:43:51;;;;;;;3.30;1.02;;;;;;;;;;5078624;28;20117;-76
2021/01/21 13:46:17;;;;;;;1.17;0.68;;;;;;;;;;5088227;28;20091;-76
2021/01/21 13:48:42;;;;;;;0.47;0.47;;;;;;;;;;5099651;28;20646;-75
2021/01/21 13:51:09;;;;;;;1.33;0.75;;;;;;;;;;5117270;28;20047;-75
2021/01/21 13:53:34;;;;;;;3.88;0.60;;;;;;;;;;5120286;28;20415;-75
2021/01/21 13:56:03;;;;;;;1.88;0.80;;;;;;;;;;5122234;28;20068;-76
2021/01/21 13:58:28;;;;;;;1.38;0.60;;;;;;;;;;5102916;28;20067;-76
2021/01/21 14:00:54;;;;;;;3.40;0.88;;;;;;;;;;5115198;28;20499;-76
2021/01/21 14:03:19;;;;;;;1.35;0.70;;;;;;;;;;5115123;28;20042;-76
2021/01/21 14:05:45;;;;;;;1.42;0.57;;;;;;;;;;5115118;28;20039;-76
2021/01/21 14:08:10;;;;;;;1.17;0.80;;;;;;;;;;5114998;28;20381;-76
2021/01/21 14:10:35;;;;;;;1.00;0.52;;;;;;;;;;5098602;28;20047;-76
2021/01/21 14:13:01;;;;;;;0.60;0.60;;;;;;;;;;5083207;28;20036;-76
2021/01/21 14:15:26;;;;;;;0.93;0.50;;;;;;;;;;5096735;28;20040;-76
2021/01/21 14:17:52;;;;;;;2.38;0.70;;;;;;;;;;5095807;28;20115;-76
2021/01/21 14:20:17;;;;;;;0.80;0.70;;;;;;;;;;5079267;28;20058;-76
2021/01/21 14:22:43;;;;;;;3.95;0.82;;;;;;;;;;5097509;28;20040;-76
2021/01/21 14:25:09;;;;;;;3.10;1.40;;;;;;;;;;5096785;28;20512;-76
2021/01/21 14:27:34;;;;;;;2.78;1.60;;;;;;;;;;5096165;28;20085;-76
2021/01/21 14:30:01;;;;;;;1.58;1.30;;;;;;;;;;5094984;28;20033;-76
2021/01/21 14:32:27;;;;;;;3.30;0.98;;;;;;;;;;5095195;28;20042;-76
2021/01/21 14:34:52;;;;;;;2.70;0.77;;;;;;;;;;5095126;28;20047;-76
2021/01/21 14:37:18;;;;;;;1.00;0.80;;;;;;;;;;5095624;28;20466;-76
2021/01/21 14:39:44;;;;;;;1.83;0.85;;;;;;;;;;5095631;28;20476;-76
2021/01/21 14:42:09;;;;;;;4.30;1.40;;;;;;;;;;5078834;28;20044;-76
2021/01/21 14:44:35;;;;;;;1.48;0.80;;;;;;;;;;5096942;28;20438;-76
2021/01/21 14:47:02;;;;;;;2.30;0.77;;;;;;;;;;5079248;28;20044;-76
2021/01/21 14:49:28;;;;;;;3.75;1.00;;;;;;;;;;5096335;28;20036;-76
2021/01/21 14:51:55;;;;;;;2.00;1.00;;;;;;;;;;5096483;28;20456;-76
2021/01/21 14:54:21;;;;;;;2.20;1.10;;;;;;;;;;5079680;28;20066;-76
2021/01/21 14:56:47;;;;;;;1.90;1.40;;;;;;;;;;5097937;28;20032;-76
2021/01/21 14:59:12;;;;;;;1.83;0.95;;;;;;;;;;5080241;28;20044;-76